sensor_id;sensor_type;location;lat;lon;timestamp;temperature;humidity
5457;DHT22;2751;49.802;9.944;2023-04-04T00:01:13;1.40;1.00
5457;DHT22;2751;49.802;9.944;2023-04-04T00:03:41;1.40;1.00
5457;DHT22;2751;49.802;9.944;2023-04-04T00:06:08;1.40;1.00
5457;DHT22;2751;49.802;9.944;2023-04-04T00:08:35;1.40;1.00
5457;DHT22;2751;49.802;9.944;2023-04-04T00:11:02;1.40;1.00
5457;DHT22;2751;49.802;9.944;2023-04-04T00:13:32;1.40;1.00
5457;DHT22;2751;49.802;9.944;2023-04-04T00:15:59;1.30;1.00
5457;DHT22;2751;49.802;9.944;2023-04-04T00:18:26;1.30;1.00
5457;DHT22;2751;49.802;9.944;2023-04-04T00:20:52;1.20;1.00
5457;DHT22;2751;49.802;9.944;2023-04-04T00:23:19;1.20;1.00
5457;DHT22;2751;49.802;9.944;2023-04-04T00:25:49;1.20;1.00
5457;DHT22;2751;49.802;9.944;2023-04-04T00:28:16;1.20;1.00
5457;DHT22;2751;49.802;9.944;2023-04-04T00:30:45;1.20;1.00
5457;DHT22;2751;49.802;9.944;2023-04-04T00:33:12;1.40;1.00
5457;DHT22;2751;49.802;9.944;2023-04-04T00:35:39;1.10;1.00
5457;DHT22;2751;49.802;9.944;2023-04-04T00:38:06;1.10;1.00
5457;DHT22;2751;49.802;9.944;2023-04-04T00:40:33;1.10;1.00
5457;DHT22;2751;49.802;9.944;2023-04-04T00:43:06;1.00;1.00
5457;DHT22;2751;49.802;9.944;2023-04-04T00:45:33;1.00;1.00
5457;DHT22;2751;49.802;9.944;2023-04-04T00:48:02;1.00;1.00
5457;DHT22;2751;49.802;9.944;2023-04-04T00:50:28;1.00;1.00
5457;DHT22;2751;49.802;9.944;2023-04-04T00:52:56;1.00;1.00
5457;DHT22;2751;49.802;9.944;2023-04-04T00:55:23;0.90;1.00
5457;DHT22;2751;49.802;9.944;2023-04-04T00:57:51;0.90;1.00
5457;DHT22;2751;49.802;9.944;2023-04-04T01:00:19;0.90;1.00
5457;DHT22;2751;49.802;9.944;2023-04-04T01:02:46;0.90;1.00
5457;DHT22;2751;49.802;9.944;2023-04-04T01:05:14;0.90;1.00
5457;DHT22;2751;49.802;9.944;2023-04-04T01:07:41;1.40;1.00
5457;DHT22;2751;49.802;9.944;2023-04-04T01:10:10;0.80;1.00
5457;DHT22;2751;49.802;9.944;2023-04-04T01:12:37;0.80;1.00
5457;DHT22;2751;49.802;9.944;2023-04-04T01:15:05;0.90;1.00
5457;DHT22;2751;49.802;9.944;2023-04-04T01:17:33;0.80;1.00
5457;DHT22;2751;49.802;9.944;2023-04-04T01:20:03;0.80;1.00
5457;DHT22;2751;49.802;9.944;2023-04-04T01:22:33;0.80;1.00
5457;DHT22;2751;49.802;9.944;2023-04-04T01:25:03;0.80;1.00
5457;DHT22;2751;49.802;9.944;2023-04-04T01:27:32;0.80;1.00
5457;DHT22;2751;49.802;9.944;2023-04-04T01:29:59;0.80;1.00
5457;DHT22;2751;49.802;9.944;2023-04-04T01:32:35;0.80;1.00
5457;DHT22;2751;49.802;9.944;2023-04-04T01:35:11;0.80;1.00
5457;DHT22;2751;49.802;9.944;2023-04-04T01:37:50;0.90;1.00
5457;DHT22;2751;49.802;9.944;2023-04-04T01:40:23;0.80;1.00
5457;DHT22;2751;49.802;9.944;2023-04-04T01:42:52;0.80;1.00
5457;DHT22;2751;49.802;9.944;2023-04-04T01:45:20;0.80;1.00
5457;DHT22;2751;49.802;9.944;2023-04-04T01:47:49;0.80;1.00
5457;DHT22;2751;49.802;9.944;2023-04-04T01:50:16;0.80;1.00
5457;DHT22;2751;49.802;9.944;2023-04-04T01:52:43;0.80;99.90
5457;DHT22;2751;49.802;9.944;2023-04-04T01:55:10;0.80;1.00
5457;DHT22;2751;49.802;9.944;2023-04-04T01:57:37;0.80;1.00
5457;DHT22;2751;49.802;9.944;2023-04-04T02:00:06;0.70;1.00
5457;DHT22;2751;49.802;9.944;2023-04-04T02:02:33;0.70;1.00
5457;DHT22;2751;49.802;9.944;2023-04-04T02:05:00;0.70;1.00
5457;DHT22;2751;49.802;9.944;2023-04-04T02:07:28;0.70;99.90
5457;DHT22;2751;49.802;9.944;2023-04-04T02:09:55;0.70;99.90
5457;DHT22;2751;49.802;9.944;2023-04-04T02:12:23;0.90;99.90
5457;DHT22;2751;49.802;9.944;2023-04-04T02:14:50;0.70;99.90
5457;DHT22;2751;49.802;9.944;2023-04-04T02:17:18;0.70;99.90
5457;DHT22;2751;49.802;9.944;2023-04-04T02:19:45;0.60;99.90
5457;DHT22;2751;49.802;9.944;2023-04-04T02:22:11;0.70;1.00
5457;DHT22;2751;49.802;9.944;2023-04-04T02:24:38;0.60;1.00
5457;DHT22;2751;49.802;9.944;2023-04-04T02:27:05;0.70;1.00
5457;DHT22;2751;49.802;9.944;2023-04-04T02:29:32;0.60;1.00
5457;DHT22;2751;49.802;9.944;2023-04-04T02:31:59;0.60;1.00
5457;DHT22;2751;49.802;9.944;2023-04-04T02:34:27;0.70;1.00
5457;DHT22;2751;49.802;9.944;2023-04-04T02:36:54;0.70;1.00
5457;DHT22;2751;49.802;9.944;2023-04-04T02:39:21;0.70;1.00
5457;DHT22;2751;49.802;9.944;2023-04-04T02:41:47;0.60;1.00
5457;DHT22;2751;49.802;9.944;2023-04-04T02:44:15;0.60;1.00
5457;DHT22;2751;49.802;9.944;2023-04-04T02:46:42;0.60;1.00
5457;DHT22;2751;49.802;9.944;2023-04-04T02:49:09;0.60;1.00
5457;DHT22;2751;49.802;9.944;2023-04-04T02:51:38;0.60;1.00
5457;DHT22;2751;49.802;9.944;2023-04-04T02:54:05;0.60;1.00
5457;DHT22;2751;49.802;9.944;2023-04-04T02:56:32;0.60;99.90
5457;DHT22;2751;49.802;9.944;2023-04-04T02:58:59;0.50;1.00
5457;DHT22;2751;49.802;9.944;2023-04-04T03:01:26;0.50;1.00
5457;DHT22;2751;49.802;9.944;2023-04-04T03:03:52;0.40;17.40
5457;DHT22;2751;49.802;9.944;2023-04-04T03:06:19;0.40;1.00
5457;DHT22;2751;49.802;9.944;2023-04-04T03:08:48;0.40;1.00
5457;DHT22;2751;49.802;9.944;2023-04-04T03:11:16;0.40;8.80
5457;DHT22;2751;49.802;9.944;2023-04-04T03:13:45;0.40;1.00
5457;DHT22;2751;49.802;9.944;2023-04-04T03:16:13;0.50;99.90
5457;DHT22;2751;49.802;9.944;2023-04-04T03:18:42;0.50;1.00
5457;DHT22;2751;49.802;9.944;2023-04-04T03:21:09;0.40;1.00
5457;DHT22;2751;49.802;9.944;2023-04-04T03:23:36;0.40;1.00
5457;DHT22;2751;49.802;9.944;2023-04-04T03:26:04;0.40;1.00
5457;DHT22;2751;49.802;9.944;2023-04-04T03:28:31;0.40;99.90
5457;DHT22;2751;49.802;9.944;2023-04-04T03:31:02;0.40;99.90
5457;DHT22;2751;49.802;9.944;2023-04-04T03:33:29;0.40;99.90
5457;DHT22;2751;49.802;9.944;2023-04-04T03:35:56;0.70;1.00
5457;DHT22;2751;49.802;9.944;2023-04-04T03:38:23;0.40;1.00
5457;DHT22;2751;49.802;9.944;2023-04-04T03:40:50;0.30;99.90
5457;DHT22;2751;49.802;9.944;2023-04-04T03:43:27;0.30;1.00
5457;DHT22;2751;49.802;9.944;2023-04-04T03:45:58;0.40;1.00
5457;DHT22;2751;49.802;9.944;2023-04-04T03:48:25;0.30;99.90
5457;DHT22;2751;49.802;9.944;2023-04-04T03:50:51;0.40;99.90
5457;DHT22;2751;49.802;9.944;2023-04-04T03:53:18;0.30;99.90
5457;DHT22;2751;49.802;9.944;2023-04-04T03:55:45;0.40;99.90
5457;DHT22;2751;49.802;9.944;2023-04-04T03:58:12;0.40;1.00
5457;DHT22;2751;49.802;9.944;2023-04-04T04:00:40;0.40;1.00
5457;DHT22;2751;49.802;9.944;2023-04-04T04:03:07;0.60;99.90
5457;DHT22;2751;49.802;9.944;2023-04-04T04:05:34;0.40;99.90
5457;DHT22;2751;49.802;9.944;2023-04-04T04:08:01;0.30;99.90
5457;DHT22;2751;49.802;9.944;2023-04-04T04:10:28;0.30;99.90
5457;DHT22;2751;49.802;9.944;2023-04-04T04:12:55;0.70;1.00
5457;DHT22;2751;49.802;9.944;2023-04-04T04:15:22;0.30;1.00
5457;DHT22;2751;49.802;9.944;2023-04-04T04:17:50;0.30;99.90
5457;DHT22;2751;49.802;9.944;2023-04-04T04:20:17;0.20;1.00
5457;DHT22;2751;49.802;9.944;2023-04-04T04:22:44;0.20;1.00
5457;DHT22;2751;49.802;9.944;2023-04-04T04:25:12;0.20;1.00
5457;DHT22;2751;49.802;9.944;2023-04-04T04:27:39;0.20;99.90
5457;DHT22;2751;49.802;9.944;2023-04-04T04:30:06;0.20;1.00
5457;DHT22;2751;49.802;9.944;2023-04-04T04:32:34;0.20;99.90
5457;DHT22;2751;49.802;9.944;2023-04-04T04:35:03;0.10;99.90
5457;DHT22;2751;49.802;9.944;2023-04-04T04:37:30;0.10;1.00
5457;DHT22;2751;49.802;9.944;2023-04-04T04:39:57;0.10;1.00
5457;DHT22;2751;49.802;9.944;2023-04-04T04:42:25;0.10;1.00
5457;DHT22;2751;49.802;9.944;2023-04-04T04:44:53;0.10;1.00
5457;DHT22;2751;49.802;9.944;2023-04-04T04:47:21;0.10;1.00
5457;DHT22;2751;49.802;9.944;2023-04-04T04:49:48;0.00;1.00
5457;DHT22;2751;49.802;9.944;2023-04-04T04:52:16;0.00;1.00
5457;DHT22;2751;49.802;9.944;2023-04-04T04:54:43;0.40;1.00
5457;DHT22;2751;49.802;9.944;2023-04-04T04:57:10;0.00;16.90
5457;DHT22;2751;49.802;9.944;2023-04-04T04:59:37;0.00;29.40
5457;DHT22;2751;49.802;9.944;2023-04-04T05:02:06;0.00;28.40
5457;DHT22;2751;49.802;9.944;2023-04-04T05:04:33;0.00;38.80
5457;DHT22;2751;49.802;9.944;2023-04-04T05:07:00;0.00;60.80
5457;DHT22;2751;49.802;9.944;2023-04-04T05:09:28;0.00;82.60
5457;DHT22;2751;49.802;9.944;2023-04-04T05:11:55;0.00;86.00
5457;DHT22;2751;49.802;9.944;2023-04-04T05:14:22;0.00;87.40
5457;DHT22;2751;49.802;9.944;2023-04-04T05:16:49;0.00;87.40
5457;DHT22;2751;49.802;9.944;2023-04-04T05:19:16;0.00;88.40
5457;DHT22;2751;49.802;9.944;2023-04-04T05:21:43;0.10;89.00
5457;DHT22;2751;49.802;9.944;2023-04-04T05:24:10;0.10;88.80
5457;DHT22;2751;49.802;9.944;2023-04-04T05:26:38;0.10;88.80
5457;DHT22;2751;49.802;9.944;2023-04-04T05:29:05;0.10;88.60
5457;DHT22;2751;49.802;9.944;2023-04-04T05:31:32;0.10;89.00
5457;DHT22;2751;49.802;9.944;2023-04-04T05:33:59;0.10;89.00
5457;DHT22;2751;49.802;9.944;2023-04-04T05:36:32;0.10;88.90
5457;DHT22;2751;49.802;9.944;2023-04-04T05:38:59;0.10;89.50
5457;DHT22;2751;49.802;9.944;2023-04-04T05:41:26;0.10;89.30
5457;DHT22;2751;49.802;9.944;2023-04-04T05:43:55;0.10;88.90
5457;DHT22;2751;49.802;9.944;2023-04-04T05:46:22;0.10;89.00
5457;DHT22;2751;49.802;9.944;2023-04-04T05:48:49;0.20;88.90
5457;DHT22;2751;49.802;9.944;2023-04-04T05:51:16;0.20;89.00
5457;DHT22;2751;49.802;9.944;2023-04-04T05:53:43;0.30;89.10
5457;DHT22;2751;49.802;9.944;2023-04-04T05:56:12;0.40;89.10
5457;DHT22;2751;49.802;9.944;2023-04-04T05:58:39;0.40;88.60
5457;DHT22;2751;49.802;9.944;2023-04-04T06:01:08;0.40;88.20
5457;DHT22;2751;49.802;9.944;2023-04-04T06:03:35;0.50;88.40
5457;DHT22;2751;49.802;9.944;2023-04-04T06:06:02;0.50;88.20
5457;DHT22;2751;49.802;9.944;2023-04-04T06:08:30;0.50;87.20
5457;DHT22;2751;49.802;9.944;2023-04-04T06:10:57;0.40;86.80
5457;DHT22;2751;49.802;9.944;2023-04-04T06:13:24;0.70;86.40
5457;DHT22;2751;49.802;9.944;2023-04-04T06:15:51;0.70;86.30
5457;DHT22;2751;49.802;9.944;2023-04-04T06:18:19;0.80;86.80
5457;DHT22;2751;49.802;9.944;2023-04-04T06:20:46;0.90;86.80
5457;DHT22;2751;49.802;9.944;2023-04-04T06:23:13;0.80;86.40
5457;DHT22;2751;49.802;9.944;2023-04-04T06:25:39;0.90;86.70
5457;DHT22;2751;49.802;9.944;2023-04-04T06:28:06;1.00;86.40
5457;DHT22;2751;49.802;9.944;2023-04-04T06:30:34;1.10;86.10
5457;DHT22;2751;49.802;9.944;2023-04-04T06:33:02;1.10;85.30
5457;DHT22;2751;49.802;9.944;2023-04-04T06:35:30;1.40;85.30
5457;DHT22;2751;49.802;9.944;2023-04-04T06:37:58;1.60;84.90
5457;DHT22;2751;49.802;9.944;2023-04-04T06:40:25;1.40;84.00
5457;DHT22;2751;49.802;9.944;2023-04-04T06:42:52;1.90;84.50
5457;DHT22;2751;49.802;9.944;2023-04-04T06:45:22;1.80;83.20
5457;DHT22;2751;49.802;9.944;2023-04-04T06:47:49;1.70;81.90
5457;DHT22;2751;49.802;9.944;2023-04-04T06:50:18;1.80;81.00
5457;DHT22;2751;49.802;9.944;2023-04-04T06:52:46;1.90;81.30
5457;DHT22;2751;49.802;9.944;2023-04-04T06:55:13;1.90;81.20
5457;DHT22;2751;49.802;9.944;2023-04-04T06:57:40;2.00;81.50
5457;DHT22;2751;49.802;9.944;2023-04-04T07:00:07;2.10;81.60
5457;DHT22;2751;49.802;9.944;2023-04-04T07:02:34;2.10;81.50
5457;DHT22;2751;49.802;9.944;2023-04-04T07:05:02;2.50;82.10
5457;DHT22;2751;49.802;9.944;2023-04-04T07:07:29;2.30;82.60
5457;DHT22;2751;49.802;9.944;2023-04-04T07:09:57;2.40;81.40
5457;DHT22;2751;49.802;9.944;2023-04-04T07:12:24;2.50;78.90
5457;DHT22;2751;49.802;9.944;2023-04-04T07:14:51;2.80;77.90
5457;DHT22;2751;49.802;9.944;2023-04-04T07:17:18;3.10;77.00
5457;DHT22;2751;49.802;9.944;2023-04-04T07:19:44;2.70;75.80
5457;DHT22;2751;49.802;9.944;2023-04-04T07:22:12;2.70;76.00
5457;DHT22;2751;49.802;9.944;2023-04-04T07:24:39;2.70;75.90
5457;DHT22;2751;49.802;9.944;2023-04-04T07:27:08;2.80;76.70
5457;DHT22;2751;49.802;9.944;2023-04-04T07:29:35;2.90;75.90
5457;DHT22;2751;49.802;9.944;2023-04-04T07:32:02;2.90;74.60
5457;DHT22;2751;49.802;9.944;2023-04-04T07:34:29;3.00;75.10
5457;DHT22;2751;49.802;9.944;2023-04-04T07:36:56;3.00;75.10
5457;DHT22;2751;49.802;9.944;2023-04-04T07:39:23;3.10;74.80
5457;DHT22;2751;49.802;9.944;2023-04-04T07:41:49;3.40;75.20
5457;DHT22;2751;49.802;9.944;2023-04-04T07:44:18;3.30;74.30
5457;DHT22;2751;49.802;9.944;2023-04-04T07:46:45;4.10;73.60
5457;DHT22;2751;49.802;9.944;2023-04-04T07:49:11;4.50;72.90
5457;DHT22;2751;49.802;9.944;2023-04-04T07:51:38;5.00;71.10
5457;DHT22;2751;49.802;9.944;2023-04-04T07:54:06;5.60;69.20
5457;DHT22;2751;49.802;9.944;2023-04-04T07:56:33;5.90;67.40
5457;DHT22;2751;49.802;9.944;2023-04-04T07:59:00;6.10;65.70
5457;DHT22;2751;49.802;9.944;2023-04-04T08:01:28;6.60;64.50
5457;DHT22;2751;49.802;9.944;2023-04-04T08:03:55;7.00;60.80
5457;DHT22;2751;49.802;9.944;2023-04-04T08:06:22;7.40;60.50
5457;DHT22;2751;49.802;9.944;2023-04-04T08:08:49;7.80;59.00
5457;DHT22;2751;49.802;9.944;2023-04-04T08:11:16;8.30;55.50
5457;DHT22;2751;49.802;9.944;2023-04-04T08:13:44;8.50;1.00
5457;DHT22;2751;49.802;9.944;2023-04-04T08:16:11;8.80;1.00
5457;DHT22;2751;49.802;9.944;2023-04-04T08:18:39;9.30;1.00
5457;DHT22;2751;49.802;9.944;2023-04-04T08:21:06;9.40;1.00
5457;DHT22;2751;49.802;9.944;2023-04-04T08:23:33;10.30;1.00
5457;DHT22;2751;49.802;9.944;2023-04-04T08:25:59;10.60;1.00
5457;DHT22;2751;49.802;9.944;2023-04-04T08:28:27;10.80;1.00
5457;DHT22;2751;49.802;9.944;2023-04-04T08:30:54;11.40;1.00
5457;DHT22;2751;49.802;9.944;2023-04-04T08:33:21;12.20;1.00
5457;DHT22;2751;49.802;9.944;2023-04-04T08:35:50;12.00;1.00
5457;DHT22;2751;49.802;9.944;2023-04-04T08:38:17;12.20;1.00
5457;DHT22;2751;49.802;9.944;2023-04-04T08:40:45;12.70;1.00
5457;DHT22;2751;49.802;9.944;2023-04-04T08:43:13;13.50;1.00
5457;DHT22;2751;49.802;9.944;2023-04-04T08:45:42;13.90;1.00
5457;DHT22;2751;49.802;9.944;2023-04-04T08:48:10;13.10;1.00
5457;DHT22;2751;49.802;9.944;2023-04-04T08:50:40;12.40;1.00
5457;DHT22;2751;49.802;9.944;2023-04-04T08:53:10;11.80;1.00
5457;DHT22;2751;49.802;9.944;2023-04-04T08:55:37;11.20;1.00
5457;DHT22;2751;49.802;9.944;2023-04-04T08:58:05;11.10;1.00
5457;DHT22;2751;49.802;9.944;2023-04-04T09:00:32;10.60;1.00
5457;DHT22;2751;49.802;9.944;2023-04-04T09:03:05;11.80;1.00
5457;DHT22;2751;49.802;9.944;2023-04-04T09:05:35;11.30;1.00
5457;DHT22;2751;49.802;9.944;2023-04-04T09:08:04;10.90;1.00
5457;DHT22;2751;49.802;9.944;2023-04-04T09:10:32;11.60;1.00
5457;DHT22;2751;49.802;9.944;2023-04-04T09:13:02;12.30;1.00
5457;DHT22;2751;49.802;9.944;2023-04-04T09:15:30;12.80;1.00
5457;DHT22;2751;49.802;9.944;2023-04-04T09:17:58;13.10;1.00
5457;DHT22;2751;49.802;9.944;2023-04-04T09:20:38;13.70;1.00
5457;DHT22;2751;49.802;9.944;2023-04-04T09:23:07;13.40;1.00
5457;DHT22;2751;49.802;9.944;2023-04-04T09:25:35;12.80;1.00
5457;DHT22;2751;49.802;9.944;2023-04-04T09:28:03;13.00;1.00
5457;DHT22;2751;49.802;9.944;2023-04-04T09:30:31;12.60;1.00
5457;DHT22;2751;49.802;9.944;2023-04-04T09:33:04;10.90;1.00
5457;DHT22;2751;49.802;9.944;2023-04-04T09:35:33;9.80;1.00
5457;DHT22;2751;49.802;9.944;2023-04-04T09:38:00;9.70;1.00
5457;DHT22;2751;49.802;9.944;2023-04-04T09:40:28;11.00;1.00
5457;DHT22;2751;49.802;9.944;2023-04-04T09:43:00;12.30;1.00
5457;DHT22;2751;49.802;9.944;2023-04-04T09:45:29;12.50;1.00
5457;DHT22;2751;49.802;9.944;2023-04-04T09:47:56;13.40;1.00
5457;DHT22;2751;49.802;9.944;2023-04-04T09:50:24;14.60;1.00
5457;DHT22;2751;49.802;9.944;2023-04-04T09:52:55;13.70;1.00
5457;DHT22;2751;49.802;9.944;2023-04-04T09:55:30;12.60;1.00
5457;DHT22;2751;49.802;9.944;2023-04-04T09:57:57;11.50;1.00
5457;DHT22;2751;49.802;9.944;2023-04-04T10:00:28;12.40;1.00
5457;DHT22;2751;49.802;9.944;2023-04-04T10:03:01;13.70;1.00
5457;DHT22;2751;49.802;9.944;2023-04-04T10:05:28;13.60;1.00
5457;DHT22;2751;49.802;9.944;2023-04-04T10:07:56;12.60;1.00
5457;DHT22;2751;49.802;9.944;2023-04-04T10:10:25;11.60;1.00
5457;DHT22;2751;49.802;9.944;2023-04-04T10:12:54;12.60;1.00
5457;DHT22;2751;49.802;9.944;2023-04-04T10:15:23;14.20;1.00
5457;DHT22;2751;49.802;9.944;2023-04-04T10:17:52;14.70;1.00
5457;DHT22;2751;49.802;9.944;2023-04-04T10:20:21;15.00;1.00
5457;DHT22;2751;49.802;9.944;2023-04-04T10:22:48;15.10;1.00
5457;DHT22;2751;49.802;9.944;2023-04-04T10:25:16;15.40;1.00
5457;DHT22;2751;49.802;9.944;2023-04-04T10:27:43;14.60;1.00
5457;DHT22;2751;49.802;9.944;2023-04-04T10:30:11;13.70;1.00
5457;DHT22;2751;49.802;9.944;2023-04-04T10:32:42;12.60;1.00
5457;DHT22;2751;49.802;9.944;2023-04-04T10:35:13;11.70;1.00
5457;DHT22;2751;49.802;9.944;2023-04-04T10:37:43;12.60;1.00
5457;DHT22;2751;49.802;9.944;2023-04-04T10:40:15;14.60;1.00
5457;DHT22;2751;49.802;9.944;2023-04-04T10:42:46;16.50;1.00
5457;DHT22;2751;49.802;9.944;2023-04-04T10:45:13;17.60;1.00
5457;DHT22;2751;49.802;9.944;2023-04-04T10:47:41;18.40;1.00
5457;DHT22;2751;49.802;9.944;2023-04-04T10:50:09;18.90;1.00
5457;DHT22;2751;49.802;9.944;2023-04-04T10:52:39;19.10;1.00
5457;DHT22;2751;49.802;9.944;2023-04-04T10:55:09;18.40;1.00
5457;DHT22;2751;49.802;9.944;2023-04-04T10:57:39;20.00;1.00
5457;DHT22;2751;49.802;9.944;2023-04-04T11:00:08;20.80;1.00
5457;DHT22;2751;49.802;9.944;2023-04-04T11:02:46;20.90;1.00
5457;DHT22;2751;49.802;9.944;2023-04-04T11:05:20;21.60;1.00
5457;DHT22;2751;49.802;9.944;2023-04-04T11:07:52;21.90;1.00
5457;DHT22;2751;49.802;9.944;2023-04-04T11:10:22;20.60;1.00
5457;DHT22;2751;49.802;9.944;2023-04-04T11:12:52;20.40;1.00
5457;DHT22;2751;49.802;9.944;2023-04-04T11:15:21;21.00;1.00
5457;DHT22;2751;49.802;9.944;2023-04-04T11:17:58;21.40;1.00
5457;DHT22;2751;49.802;9.944;2023-04-04T11:20:31;22.60;1.00
5457;DHT22;2751;49.802;9.944;2023-04-04T11:23:14;22.80;1.00
5457;DHT22;2751;49.802;9.944;2023-04-04T11:25:47;23.00;1.00
5457;DHT22;2751;49.802;9.944;2023-04-04T11:28:25;23.20;1.00
5457;DHT22;2751;49.802;9.944;2023-04-04T11:31:26;24.10;1.00
5457;DHT22;2751;49.802;9.944;2023-04-04T11:33:56;25.30;1.00
5457;DHT22;2751;49.802;9.944;2023-04-04T11:36:47;23.70;1.00
5457;DHT22;2751;49.802;9.944;2023-04-04T11:39:24;23.40;1.00
5457;DHT22;2751;49.802;9.944;2023-04-04T11:41:53;22.40;1.00
5457;DHT22;2751;49.802;9.944;2023-04-04T11:44:20;19.90;1.00
5457;DHT22;2751;49.802;9.944;2023-04-04T11:46:50;18.40;1.00
5457;DHT22;2751;49.802;9.944;2023-04-04T11:49:24;18.00;1.00
5457;DHT22;2751;49.802;9.944;2023-04-04T11:51:52;16.40;1.00
5457;DHT22;2751;49.802;9.944;2023-04-04T11:54:20;16.90;1.00
5457;DHT22;2751;49.802;9.944;2023-04-04T11:56:47;16.30;1.00
5457;DHT22;2751;49.802;9.944;2023-04-04T11:59:17;14.80;1.00
5457;DHT22;2751;49.802;9.944;2023-04-04T12:01:44;14.50;1.00
5457;DHT22;2751;49.802;9.944;2023-04-04T12:04:11;14.70;1.00
5457;DHT22;2751;49.802;9.944;2023-04-04T12:06:38;15.70;1.00
5457;DHT22;2751;49.802;9.944;2023-04-04T12:09:05;17.40;1.00
5457;DHT22;2751;49.802;9.944;2023-04-04T12:11:35;18.00;1.00
5457;DHT22;2751;49.802;9.944;2023-04-04T12:14:03;19.30;1.00
5457;DHT22;2751;49.802;9.944;2023-04-04T12:16:29;20.80;1.00
5457;DHT22;2751;49.802;9.944;2023-04-04T12:19:00;21.30;1.00
5457;DHT22;2751;49.802;9.944;2023-04-04T12:21:30;22.20;1.00
5457;DHT22;2751;49.802;9.944;2023-04-04T12:23:57;22.20;1.00
5457;DHT22;2751;49.802;9.944;2023-04-04T12:26:24;20.60;1.00
5457;DHT22;2751;49.802;9.944;2023-04-04T12:28:55;18.10;1.00
5457;DHT22;2751;49.802;9.944;2023-04-04T12:31:23;17.60;1.00
5457;DHT22;2751;49.802;9.944;2023-04-04T12:33:50;16.50;1.00
5457;DHT22;2751;49.802;9.944;2023-04-04T12:36:17;15.10;1.00
5457;DHT22;2751;49.802;9.944;2023-04-04T12:38:59;14.90;1.00
5457;DHT22;2751;49.802;9.944;2023-04-04T12:41:26;15.30;1.00
5457;DHT22;2751;49.802;9.944;2023-04-04T12:44:00;13.90;1.00
5457;DHT22;2751;49.802;9.944;2023-04-04T12:46:33;14.00;1.00
5457;DHT22;2751;49.802;9.944;2023-04-04T12:49:00;14.60;1.00
5457;DHT22;2751;49.802;9.944;2023-04-04T12:51:32;15.20;1.00
5457;DHT22;2751;49.802;9.944;2023-04-04T12:53:59;15.90;1.00
5457;DHT22;2751;49.802;9.944;2023-04-04T12:56:27;17.00;1.00
5457;DHT22;2751;49.802;9.944;2023-04-04T12:59:00;18.70;1.00
5457;DHT22;2751;49.802;9.944;2023-04-04T13:01:29;19.60;1.00
5457;DHT22;2751;49.802;9.944;2023-04-04T13:04:00;20.40;1.00
5457;DHT22;2751;49.802;9.944;2023-04-04T13:06:30;20.80;1.00
5457;DHT22;2751;49.802;9.944;2023-04-04T13:08:57;21.40;1.00
5457;DHT22;2751;49.802;9.944;2023-04-04T13:11:24;18.80;1.00
5457;DHT22;2751;49.802;9.944;2023-04-04T13:14:02;16.70;1.00
5457;DHT22;2751;49.802;9.944;2023-04-04T13:16:31;14.40;1.00
5457;DHT22;2751;49.802;9.944;2023-04-04T13:19:00;14.80;1.00
5457;DHT22;2751;49.802;9.944;2023-04-04T13:21:28;17.00;1.00
5457;DHT22;2751;49.802;9.944;2023-04-04T13:23:55;18.00;1.00
5457;DHT22;2751;49.802;9.944;2023-04-04T13:26:22;19.60;1.00
5457;DHT22;2751;49.802;9.944;2023-04-04T13:28:49;19.80;1.00
5457;DHT22;2751;49.802;9.944;2023-04-04T13:31:17;20.30;1.00
5457;DHT22;2751;49.802;9.944;2023-04-04T13:33:44;20.80;1.00
5457;DHT22;2751;49.802;9.944;2023-04-04T13:36:11;19.20;1.00
5457;DHT22;2751;49.802;9.944;2023-04-04T13:38:38;18.10;1.00
5457;DHT22;2751;49.802;9.944;2023-04-04T13:41:05;16.50;1.00
5457;DHT22;2751;49.802;9.944;2023-04-04T13:43:32;14.70;1.00
5457;DHT22;2751;49.802;9.944;2023-04-04T13:45:59;14.10;1.00
5457;DHT22;2751;49.802;9.944;2023-04-04T13:48:27;14.50;1.00
5457;DHT22;2751;49.802;9.944;2023-04-04T13:50:55;16.60;1.00
5457;DHT22;2751;49.802;9.944;2023-04-04T13:53:22;17.00;1.00
5457;DHT22;2751;49.802;9.944;2023-04-04T13:55:49;16.20;1.00
5457;DHT22;2751;49.802;9.944;2023-04-04T13:58:17;15.50;1.00
5457;DHT22;2751;49.802;9.944;2023-04-04T14:00:46;15.20;1.00
5457;DHT22;2751;49.802;9.944;2023-04-04T14:03:13;14.20;1.00
5457;DHT22;2751;49.802;9.944;2023-04-04T14:05:42;13.50;1.00
5457;DHT22;2751;49.802;9.944;2023-04-04T14:08:09;11.90;1.00
5457;DHT22;2751;49.802;9.944;2023-04-04T14:10:36;11.60;1.00
5457;DHT22;2751;49.802;9.944;2023-04-04T14:13:03;11.20;1.00
5457;DHT22;2751;49.802;9.944;2023-04-04T14:15:30;11.00;1.00
5457;DHT22;2751;49.802;9.944;2023-04-04T14:17:57;10.60;1.00
5457;DHT22;2751;49.802;9.944;2023-04-04T14:20:24;10.40;1.00
5457;DHT22;2751;49.802;9.944;2023-04-04T14:22:52;10.10;1.00
5457;DHT22;2751;49.802;9.944;2023-04-04T14:25:19;9.70;1.00
5457;DHT22;2751;49.802;9.944;2023-04-04T14:27:46;9.20;1.00
5457;DHT22;2751;49.802;9.944;2023-04-04T14:30:14;9.10;1.00
5457;DHT22;2751;49.802;9.944;2023-04-04T14:32:41;9.00;1.00
5457;DHT22;2751;49.802;9.944;2023-04-04T14:35:08;8.80;1.00
5457;DHT22;2751;49.802;9.944;2023-04-04T14:37:35;8.70;1.00
5457;DHT22;2751;49.802;9.944;2023-04-04T14:40:05;8.60;1.00
5457;DHT22;2751;49.802;9.944;2023-04-04T14:42:32;8.50;1.00
5457;DHT22;2751;49.802;9.944;2023-04-04T14:44:58;8.40;1.00
5457;DHT22;2751;49.802;9.944;2023-04-04T14:47:29;8.40;1.00
5457;DHT22;2751;49.802;9.944;2023-04-04T14:49:56;8.30;1.00
5457;DHT22;2751;49.802;9.944;2023-04-04T14:52:23;8.30;1.00
5457;DHT22;2751;49.802;9.944;2023-04-04T14:54:50;8.30;1.00
5457;DHT22;2751;49.802;9.944;2023-04-04T14:57:18;8.20;1.00
5457;DHT22;2751;49.802;9.944;2023-04-04T14:59:45;8.20;1.00
5457;DHT22;2751;49.802;9.944;2023-04-04T15:02:12;8.20;1.00
5457;DHT22;2751;49.802;9.944;2023-04-04T15:04:39;8.10;1.00
5457;DHT22;2751;49.802;9.944;2023-04-04T15:07:07;8.10;1.00
5457;DHT22;2751;49.802;9.944;2023-04-04T15:09:33;8.10;1.00
5457;DHT22;2751;49.802;9.944;2023-04-04T15:12:01;8.20;1.00
5457;DHT22;2751;49.802;9.944;2023-04-04T15:14:29;8.20;1.00
5457;DHT22;2751;49.802;9.944;2023-04-04T15:16:56;8.20;1.00
5457;DHT22;2751;49.802;9.944;2023-04-04T15:19:23;8.10;1.00
5457;DHT22;2751;49.802;9.944;2023-04-04T15:21:50;8.50;1.00
5457;DHT22;2751;49.802;9.944;2023-04-04T15:24:17;8.10;1.00
5457;DHT22;2751;49.802;9.944;2023-04-04T15:26:44;8.10;1.00
5457;DHT22;2751;49.802;9.944;2023-04-04T15:29:11;8.10;1.00
5457;DHT22;2751;49.802;9.944;2023-04-04T15:31:41;8.20;1.00
5457;DHT22;2751;49.802;9.944;2023-04-04T15:34:08;7.80;1.00
5457;DHT22;2751;49.802;9.944;2023-04-04T15:36:35;7.70;1.00
5457;DHT22;2751;49.802;9.944;2023-04-04T15:39:01;7.70;1.00
5457;DHT22;2751;49.802;9.944;2023-04-04T15:41:29;7.60;1.00
5457;DHT22;2751;49.802;9.944;2023-04-04T15:43:55;7.60;1.00
5457;DHT22;2751;49.802;9.944;2023-04-04T15:46:23;7.60;1.00
5457;DHT22;2751;49.802;9.944;2023-04-04T15:48:54;7.30;1.00
5457;DHT22;2751;49.802;9.944;2023-04-04T15:51:20;7.50;1.00
5457;DHT22;2751;49.802;9.944;2023-04-04T15:53:47;7.60;1.00
5457;DHT22;2751;49.802;9.944;2023-04-04T15:56:14;7.60;1.00
5457;DHT22;2751;49.802;9.944;2023-04-04T15:58:41;8.00;1.00
5457;DHT22;2751;49.802;9.944;2023-04-04T16:01:08;7.60;1.00
5457;DHT22;2751;49.802;9.944;2023-04-04T16:03:35;7.70;1.00
5457;DHT22;2751;49.802;9.944;2023-04-04T16:06:03;7.80;1.00
5457;DHT22;2751;49.802;9.944;2023-04-04T16:08:34;7.70;1.00
5457;DHT22;2751;49.802;9.944;2023-04-04T16:11:01;7.60;1.00
5457;DHT22;2751;49.802;9.944;2023-04-04T16:13:28;7.70;1.00
5457;DHT22;2751;49.802;9.944;2023-04-04T16:15:55;7.50;1.00
5457;DHT22;2751;49.802;9.944;2023-04-04T16:18:22;7.40;1.00
5457;DHT22;2751;49.802;9.944;2023-04-04T16:20:50;7.40;1.00
5457;DHT22;2751;49.802;9.944;2023-04-04T16:23:18;7.60;1.00
5457;DHT22;2751;49.802;9.944;2023-04-04T16:25:45;7.40;1.00
5457;DHT22;2751;49.802;9.944;2023-04-04T16:28:14;7.40;1.00
5457;DHT22;2751;49.802;9.944;2023-04-04T16:30:41;7.40;1.00